Time;durP1;ratioP1;P1;durP2;ratioP2;P2;SDS_P1;SDS_P2;PMS_P1;PMS_P2;Temp;Humidity;BMP_temperature;BMP_pressure;BME280_temperature;BME280_humidity;BME280_pressure;Samples;Min_cycle;Max_cycle;Signal;HPM_P1;HPM_P2
2022/12/03 00:01:12;;;;;;;;;52.25;41.75;;;;;4.94;75.75;101287.59;5017557;28;45455;-70
2022/12/03 00:03:37;;;;;;;;;45.33;39.67;;;;;4.30;75.96;101180.94;5010321;28;45814;-71
2022/12/03 00:06:02;;;;;;;;;51.00;40.67;;;;;4.97;76.32;101294.47;4980632;28;45345;-70
2022/12/03 00:08:27;;;;;;;;;48.67;36.67;;;;;5.04;75.51;101304.53;4998152;28;45442;-69
2022/12/03 00:10:53;;;;;;;;;37.00;34.00;;;;;4.59;75.17;101240.53;4998021;28;45354;-69
2022/12/03 00:13:18;;;;;;;;;37.00;34.50;;;;;4.66;74.60;101245.47;4997971;28;45965;-70
2022/12/03 00:15:44;;;;;;;;;32.67;32.00;;;;;4.99;75.81;101301.31;4980057;28;45460;-68
2022/12/03 00:18:12;;;;;;;;;50.67;39.33;;;;;4.65;75.42;101227.97;5000883;28;45472;-69
2022/12/03 00:20:38;;;;;;;;;43.33;37.00;;;;;5.06;75.27;101286.84;5014409;28;45482;-67
2022/12/03 00:23:03;;;;;;;;;54.50;44.00;;;;;4.74;75.39;101243.19;5000116;28;47285;-69
2022/12/03 00:25:28;;;;;;;;;50.33;40.67;;;;;3.83;75.11;101094.34;5017110;28;45429;-71
2022/12/03 00:27:54;;;;;;;;;50.00;39.33;;;;;5.15;74.81;101291.53;5017706;28;45556;-72
2022/12/03 00:30:19;;;;;;;;;56.67;40.67;;;;;1.70;74.19;100701.75;5017999;28;45307;-70
2022/12/03 00:32:44;;;;;;;;;50.33;37.67;;;;;5.30;74.60;101287.09;5016060;28;56795;-70
2022/12/03 00:35:09;;;;;;;;;54.00;40.00;;;;;5.24;74.87;101284.00;5017395;28;45349;-69
2022/12/03 00:37:35;;;;;;;;;49.50;37.50;;;;;5.11;74.77;101265.47;5016634;28;45781;-67
2022/12/03 00:40:02;;;;;;;;;53.67;40.67;;;;;5.03;74.41;101241.41;5017768;28;45487;-68
2022/12/03 00:42:28;;;;;;;;;38.00;31.00;;;;;5.30;73.93;101280.97;5016159;28;47565;-68
2022/12/03 00:44:53;;;;;;;;;56.67;39.33;;;;;4.09;74.35;101101.50;5017279;28;45464;-69
2022/12/03 00:47:18;;;;;;;;;56.67;41.67;;;;;5.23;74.10;101262.06;5017470;28;45656;-69
2022/12/03 00:49:44;;;;;;;;;40.67;35.00;;;;;5.36;74.11;101262.13;4997966;28;45329;-69
2022/12/03 00:52:09;;;;;;;;;55.75;43.75;;;;;4.53;73.19;101114.53;4997298;28;45415;-70
2022/12/03 00:54:34;;;;;;;;;61.75;47.75;;;;;5.43;73.99;101258.16;4997649;28;45207;-68
2022/12/03 00:57:00;;;;;;;;;59.00;42.00;;;;;5.29;73.66;101245.00;4997372;28;45223;-69
2022/12/03 00:59:25;;;;;;;;;44.67;37.00;;;;;5.46;73.42;101279.91;4997588;28;45646;-70
2022/12/03 01:01:50;;;;;;;;;43.33;36.67;;;;;4.32;73.10;101110.63;4997151;28;45926;-69
2022/12/03 01:04:16;;;;;;;;;47.67;39.33;;;;;5.24;73.79;101278.72;4998944;28;45498;-68
2022/12/03 01:06:41;;;;;;;;;50.00;38.00;;;;;4.24;74.06;101105.84;5013652;28;45404;-69
2022/12/03 01:09:07;;;;;;;;;52.00;41.00;;;;;5.28;73.16;101269.69;4996956;28;53660;-67
2022/12/03 01:11:38;;;;;;;;;50.50;38.25;;;;;5.04;73.43;101241.28;4996952;28;45525;-68
2022/12/03 01:14:08;;;;;;;;;52.25;40.25;;;;;5.25;73.68;101278.63;4995636;28;45555;-67
2022/12/03 01:16:34;;;;;;;;;48.25;39.00;;;;;4.38;74.36;101127.81;4997265;28;45444;-70
2022/12/03 01:18:59;;;;;;;;;43.33;36.67;;;;;5.18;73.32;101279.94;4997447;28;45576;-70
2022/12/03 01:21:24;;;;;;;;;55.33;44.67;;;;;5.22;72.92;101270.06;4997192;28;45783;-69
2022/12/03 01:23:50;;;;;;;;;46.67;38.00;;;;;4.42;73.71;101151.25;4996750;28;45390;-68
2022/12/03 01:26:15;;;;;;;;;48.25;37.50;;;;;5.10;73.94;101258.50;4997463;28;45697;-69
2022/12/03 01:28:40;;;;;;;;;45.00;40.00;;;;;4.30;73.65;101109.03;4997330;28;45199;-69
2022/12/03 01:33:51;;;;;;;;;42.67;36.67;;;;;4.40;73.32;101157.50;4997009;28;45511;-70
2022/12/03 01:36:16;;;;;;;;;49.67;35.00;;;;;5.18;72.85;101254.44;4980098;28;45612;-70
2022/12/03 01:38:42;;;;;;;;;54.67;41.00;;;;;5.23;73.07;101261.22;5001004;28;45380;-69
2022/12/03 01:41:07;;;;;;;;;45.67;39.33;;;;;3.66;72.37;100995.44;4982944;28;45516;-70
2022/12/03 01:43:33;;;;;;;;;42.33;37.33;;;;;5.38;73.51;101274.25;5001951;28;45536;-68
2022/12/03 01:45:58;;;;;;;;;46.67;35.00;;;;;5.34;72.36;101267.50;5000104;28;46083;-70
2022/12/03 01:48:23;;;;;;;;;37.00;32.33;;;;;5.34;72.88;101278.03;5000856;28;45211;-69
2022/12/03 01:50:49;;;;;;;;;37.00;31.00;;;;;4.24;72.49;101066.34;4983469;28;47599;-69
2022/12/03 01:53:17;;;;;;;;;45.33;35.00;;;;;5.50;72.49;101264.72;5000550;28;45262;-69
2022/12/03 01:55:43;;;;;;;;;43.33;36.67;;;;;4.65;72.22;101134.00;5000809;28;45322;-69
2022/12/03 01:58:12;;;;;;;;;46.00;37.67;;;;;5.47;72.26;101264.94;4998934;28;45608;-70
2022/12/03 02:00:38;;;;;;;;;43.67;35.00;;;;;5.55;71.90;101264.41;4998824;28;48867;-70
2022/12/03 02:03:14;;;;;;;;;51.33;34.67;;;;;5.27;71.71;101270.63;4982475;28;45452;-67
2022/12/03 02:05:40;;;;;;;;;33.00;28.67;;;;;5.18;72.93;101251.78;4999809;28;45481;-68
2022/12/03 02:08:25;;;;;;;;;54.00;42.67;;;;;5.27;72.85;101268.00;4982268;28;45524;-69
2022/12/03 02:10:50;;;;;;;;;44.00;37.00;;;;;3.97;72.68;101065.41;4981984;28;46398;-68
2022/12/03 02:13:15;;;;;;;;;38.00;35.67;;;;;4.83;73.25;101200.50;4999713;28;45282;-69
2022/12/03 02:15:41;;;;;;;;;49.33;40.67;;;;;5.33;71.96;101262.31;4999965;28;45265;-68
2022/12/03 02:18:08;;;;;;;;;53.33;40.67;;;;;5.35;72.24;101266.53;5006901;28;45495;-68
2022/12/03 02:20:45;;;;;;;;;50.00;38.33;;;;;5.26;71.96;101247.84;5019716;28;46040;-69
2022/12/03 02:23:52;;;;;;;;;42.00;35.00;;;;;5.32;72.67;101266.75;5020132;28;45447;-70
2022/12/03 02:26:17;;;;;;;;;42.00;38.33;;;;;5.03;72.53;101228.22;5018714;28;45406;-68
2022/12/03 02:28:43;;;;;;;;;46.67;35.67;;;;;5.27;72.98;101278.53;5020109;28;45466;-70
2022/12/03 02:31:08;;;;;;;;;47.00;37.00;;;;;4.43;73.20;101147.66;5019373;28;45517;-68
2022/12/03 02:33:34;;;;;;;;;53.33;39.67;;;;;4.57;73.32;101179.22;5001008;28;45688;-68
2022/12/03 02:35:59;;;;;;;;;49.00;38.00;;;;;3.90;72.76;101051.81;5008163;28;45353;-69
2022/12/03 02:38:26;;;;;;;;;50.67;41.00;;;;;4.98;72.41;101199.50;5019743;28;45566;-71
2022/12/03 02:40:57;;;;;;;;;53.00;39.00;;;;;4.39;72.60;101117.19;5017589;28;45293;-69
2022/12/03 02:43:23;;;;;;;;;54.67;42.33;;;;;4.11;73.09;101075.94;5006555;28;45479;-68
2022/12/03 02:45:54;;;;;;;;;53.67;42.67;;;;;4.96;72.63;101243.53;5019212;28;45300;-68
2022/12/03 02:48:28;;;;;;;;;51.00;38.33;;;;;5.29;72.30;101266.09;5018072;28;45243;-68
2022/12/03 02:51:05;;;;;;;;;55.33;44.00;;;;;4.26;72.57;101079.41;5019168;28;45552;-70
2022/12/03 02:53:41;;;;;;;;;50.33;39.00;;;;;4.20;72.73;101061.34;5001649;28;45479;-68
2022/12/03 02:56:07;;;;;;;;;51.00;40.67;;;;;4.99;73.08;101201.19;4999250;28;45438;-70
2022/12/03 02:58:33;;;;;;;;;51.33;40.00;;;;;5.26;73.08;101269.78;4999668;28;45392;-68
2022/12/03 03:01:02;;;;;;;;;52.67;44.00;;;;;4.66;73.62;101155.91;4999167;28;45724;-69
2022/12/03 03:03:29;;;;;;;;;56.00;42.00;;;;;5.07;73.57;101227.91;4999111;28;45472;-68
2022/12/03 03:05:55;;;;;;;;;52.67;39.67;;;;;4.67;73.48;101190.06;4981635;28;45540;-67
2022/12/03 03:08:24;;;;;;;;;56.75;43.75;;;;;5.02;73.70;101269.53;4999342;28;45408;-67
2022/12/03 03:10:49;;;;;;;;;51.25;41.50;;;;;5.01;74.34;101262.56;4999017;28;46296;-70
2022/12/03 03:13:17;;;;;;;;;59.33;44.33;;;;;4.90;74.16;101262.38;4998643;28;45495;-69
2022/12/03 03:15:58;;;;;;;;;56.25;44.75;;;;;4.92;75.04;101257.00;4976064;28;45453;-69
2022/12/03 03:18:24;;;;;;;;;52.00;39.67;;;;;4.68;75.43;101202.28;4998875;28;45416;-67
2022/12/03 03:20:49;;;;;;;;;55.00;42.00;;;;;4.92;74.65;101249.09;4998819;28;45557;-69
2022/12/03 03:23:20;;;;;;;;;50.67;41.33;;;;;4.92;74.32;101263.13;4980948;28;45493;-69
2022/12/03 03:25:51;;;;;;;;;48.67;41.00;;;;;4.51;74.38;101169.09;4998872;28;45474;-69
2022/12/03 03:28:17;;;;;;;;;56.33;42.67;;;;;4.85;73.77;101232.84;4998672;28;45444;-68
2022/12/03 03:30:43;;;;;;;;;41.67;38.33;;;;;4.81;73.86;101240.09;4998534;28;46413;-69
2022/12/03 03:33:09;;;;;;;;;47.33;41.00;;;;;4.95;74.10;101247.13;4998576;28;45479;-69
2022/12/03 03:35:36;;;;;;;;;52.00;39.33;;;;;4.94;73.82;101240.16;4999953;28;45440;-67
2022/12/03 03:38:01;;;;;;;;;58.33;41.33;;;;;4.79;73.35;101214.75;4998853;28;45585;-69
2022/12/03 03:40:28;;;;;;;;;51.33;40.67;;;;;4.67;73.05;101189.22;4998424;28;46242;-70
2022/12/03 03:42:56;;;;;;;;;63.00;43.50;;;;;5.07;73.75;101278.00;4998379;28;45372;-69
2022/12/03 03:45:21;;;;;;;;;52.25;43.25;;;;;4.93;73.12;101249.00;4998433;28;45211;-68
2022/12/03 03:47:47;;;;;;;;;45.33;37.00;;;;;4.94;73.82;101253.34;4998561;28;45219;-67
2022/12/03 03:50:13;;;;;;;;;61.00;46.00;;;;;4.91;73.62;101265.84;4997258;28;46004;-67
2022/12/03 03:52:40;;;;;;;;;49.67;41.67;;;;;4.23;74.36;101140.16;4997371;28;45487;-69
2022/12/03 03:55:06;;;;;;;;;50.75;38.00;;;;;4.80;73.84;101262.09;4998268;28;45393;-68
2022/12/03 03:57:32;;;;;;;;;61.75;47.75;;;;;4.06;73.43;101135.91;4980658;28;45441;-69
2022/12/03 03:59:58;;;;;;;;;52.75;42.75;;;;;4.93;72.70;101275.34;4997119;28;46486;-69
2022/12/03 04:02:25;;;;;;;;;63.00;48.50;;;;;4.90;72.83;101270.28;4997992;28;45880;-68
2022/12/03 04:04:51;;;;;;;;;57.75;46.25;;;;;4.32;73.44;101188.72;4998548;28;45172;-68
2022/12/03 04:07:16;;;;;;;;;53.00;41.67;;;;;4.45;72.87;101210.75;5011730;28;45484;-68
2022/12/03 04:09:42;;;;;;;;;46.67;39.00;;;;;4.82;73.48;101246.22;5016050;28;45848;-69
2022/12/03 04:14:52;;;;;;;;;41.33;36.67;;;;;4.75;73.66;101258.03;4998045;28;45270;-69
2022/12/03 04:17:17;;;;;;;;;52.50;41.25;;;;;4.44;73.57;101191.47;4980400;28;45433;-67
2022/12/03 04:19:43;;;;;;;;;50.00;36.00;;;;;4.87;72.99;101242.34;4997861;28;46671;-69
2022/12/03 04:28:47;;;;;;;;;46.00;36.00;;;;;5.07;73.08;101240.25;4997996;28;45308;-67
2022/12/03 04:30:21;;;;;;;;;49.67;37.33;;;;;4.35;72.04;101131.47;4997451;28;45782;-68
2022/12/03 04:35:42;;;;;;;;;47.50;38.75;;;;;5.00;72.56;101229.22;4997984;28;45237;-69
2022/12/03 04:38:12;;;;;;;;;49.33;41.33;;;;;4.35;71.97;101125.38;4997730;28;45461;-66
2022/12/03 04:43:22;;;;;;;;;43.67;35.33;;;;;4.18;72.55;101124.63;4997377;28;45467;-68
2022/12/03 04:45:48;;;;;;;;;47.00;39.00;;;;;4.47;72.55;101146.53;4996081;28;45538;-67
2022/12/03 04:48:13;;;;;;;;;48.75;38.50;;;;;5.07;71.23;101227.91;4985482;28;45568;-66
2022/12/03 04:50:38;;;;;;;;;45.00;37.67;;;;;5.18;71.79;101254.44;5017196;28;45439;-66
2022/12/03 04:53:04;;;;;;;;;46.33;37.33;;;;;4.92;71.58;101209.59;5017391;28;45400;-69
2022/12/03 04:55:29;;;;;;;;;53.00;42.00;;;;;5.15;71.65;101232.69;5017179;28;45428;-69
2022/12/03 04:57:55;;;;;;;;;52.33;38.33;;;;;4.80;71.24;101167.25;4995657;28;45597;-68
2022/12/03 05:00:20;;;;;;;;;43.33;34.67;;;;;4.10;70.89;101047.94;4997080;28;46375;-69
2022/12/03 05:02:45;;;;;;;;;47.67;40.33;;;;;4.95;70.52;101191.78;4997462;28;45329;-68
2022/12/03 05:05:11;;;;;;;;;52.67;40.67;;;;;4.94;71.41;101190.09;5008659;28;45234;-68
2022/12/03 05:07:36;;;;;;;;;46.33;37.67;;;;;5.28;70.91;101227.50;4995293;28;45456;-70
2022/12/03 05:10:03;;;;;;;;;48.33;39.67;;;;;5.02;71.11;101190.47;5011630;28;47566;-70
2022/12/03 05:12:28;;;;;;;;;45.00;37.33;;;;;4.89;70.52;101158.78;4996812;28;45455;-68
2022/12/03 05:14:54;;;;;;;;;46.67;37.33;;;;;5.41;70.34;101239.81;4997110;28;45223;-70
2022/12/03 05:17:19;;;;;;;;;39.33;27.67;;;;;5.09;70.56;101173.31;4997498;28;45346;-71
2022/12/03 05:22:28;;;;;;;;;46.67;38.67;;;;;4.52;70.38;101119.91;4996898;28;45521;-68
2022/12/03 05:24:54;;;;;;;;;34.00;22.33;;;;;4.22;70.30;101049.81;4979281;28;45552;-68
2022/12/03 05:27:20;;;;;;;;;43.33;37.33;;;;;5.25;69.91;101235.59;5012094;28;45500;-67
2022/12/03 05:29:46;;;;;;;;;48.67;39.67;;;;;4.97;70.71;101189.91;4996943;28;46747;-69
2022/12/03 05:32:11;;;;;;;;;47.33;38.33;;;;;5.25;71.09;101238.25;4997744;28;45464;-68
2022/12/03 05:34:37;;;;;;;;;30.33;27.67;;;;;4.93;70.83;101184.94;4979587;28;45382;-69
2022/12/03 05:37:02;;;;;;;;;42.33;35.00;;;;;5.15;70.27;101230.91;4992734;28;45306;-68
2022/12/03 05:39:27;;;;;;;;;31.00;31.00;;;;;4.46;70.43;101107.97;5016789;28;48534;-69
2022/12/03 05:44:37;;;;;;;;;33.33;32.00;;;;;4.77;70.51;101192.94;5017074;28;45583;-71
2022/12/03 05:47:02;;;;;;;;;56.00;40.67;;;;;4.84;70.85;101186.38;4995988;28;45629;-70
2022/12/03 05:49:27;;;;;;;;;38.67;32.67;;;;;4.33;71.35;101120.19;4996627;28;46350;-69
2022/12/03 05:51:53;;;;;;;;;34.00;28.67;;;;;4.53;70.94;101155.81;4996507;28;45353;-68
2022/12/03 05:54:18;;;;;;;;;35.33;32.67;;;;;4.98;70.34;101230.28;4996534;28;45420;-70
2022/12/03 05:56:43;;;;;;;;;46.67;37.33;;;;;4.73;71.11;101181.75;5012100;28;45321;-69
2022/12/03 05:59:09;;;;;;;;;41.67;35.00;;;;;5.11;70.89;101218.03;4996463;28;45370;-69
2022/12/03 06:01:34;;;;;;;;;51.33;39.67;;;;;5.01;70.26;101209.03;4996599;28;45412;-69
2022/12/03 06:03:59;;;;;;;;;44.67;37.67;;;;;4.70;70.41;101167.94;5011258;28;45454;-68
2022/12/03 06:06:25;;;;;;;;;54.33;41.33;;;;;4.41;70.54;101127.66;4996749;28;45533;-68
2022/12/03 06:08:50;;;;;;;;;45.33;35.00;;;;;5.06;71.11;101233.28;4995984;28;45630;-69
2022/12/03 06:11:15;;;;;;;;;45.33;38.67;;;;;5.14;71.34;101216.03;4978628;28;46506;-70
2022/12/03 06:13:41;;;;;;;;;48.00;39.33;;;;;5.16;70.87;101210.66;4978629;28;45493;-68
2022/12/03 06:16:06;;;;;;;;;41.33;32.33;;;;;5.15;70.72;101217.72;4996655;28;45484;-69
2022/12/03 06:18:31;;;;;;;;;49.67;36.67;;;;;3.91;71.00;101037.72;4996233;28;46161;-67
2022/12/03 06:20:57;;;;;;;;;40.67;29.33;;;;;5.09;71.54;101212.84;4978694;28;45410;-73
2022/12/03 06:23:22;;;;;;;;;42.67;35.67;;;;;4.98;70.56;101199.50;4997306;28;50582;-68
2022/12/03 06:25:47;;;;;;;;;50.00;38.67;;;;;4.11;70.83;101075.09;5000116;28;45198;-70
2022/12/03 06:28:13;;;;;;;;;47.33;39.00;;;;;4.61;71.09;101147.47;4999180;28;45346;-68
2022/12/03 06:30:38;;;;;;;;;35.00;29.33;;;;;4.11;70.93;101070.69;4981847;28;45287;-71
2022/12/03 06:33:03;;;;;;;;;40.33;32.00;;;;;4.87;70.58;101204.63;4981925;28;45586;-69
2022/12/03 06:35:29;;;;;;;;;44.33;34.67;;;;;5.03;70.82;101223.78;4999887;28;45247;-68
2022/12/03 06:37:54;;;;;;;;;39.00;33.67;;;;;5.08;70.96;101218.22;5018695;28;45937;-68
2022/12/03 06:40:19;;;;;;;;;34.33;28.33;;;;;5.11;70.37;101213.59;5019555;28;45365;-68
2022/12/03 06:42:45;;;;;;;;;45.00;36.33;;;;;5.25;69.53;101227.69;5019264;28;45475;-67
2022/12/03 06:45:11;;;;;;;;;39.33;33.67;;;;;5.18;69.29;101221.94;5019237;28;45656;-69
2022/12/03 06:47:36;;;;;;;;;41.00;38.00;;;;;4.99;70.28;101222.28;5005041;28;45712;-69
2022/12/03 06:50:02;;;;;;;;;39.33;34.00;;;;;4.94;69.85;101200.66;4999176;28;45269;-68
2022/12/03 06:52:27;;;;;;;;;36.67;33.67;;;;;5.02;70.20;101213.34;5000822;28;45473;-71
2022/12/03 06:54:52;;;;;;;;;34.00;30.67;;;;;5.15;69.40;101236.19;4981577;28;45505;-68
2022/12/03 06:57:18;;;;;;;;;45.33;37.33;;;;;4.66;69.70;101140.13;5017334;28;46728;-69
2022/12/03 06:59:43;;;;;;;;;42.00;32.67;;;;;5.10;69.87;101214.53;5018276;28;62134;-69
2022/12/03 07:02:10;;;;;;;;;35.33;32.67;;;;;5.21;69.67;101232.31;5018092;28;45830;-69
2022/12/03 07:04:35;;;;;;;;;29.33;26.67;;;;;4.47;68.90;101107.03;5013951;28;45610;-67
2022/12/03 07:07:01;;;;;;;;;32.00;28.67;;;;;5.18;68.89;101238.63;4998625;28;46257;-69
2022/12/03 07:09:26;;;;;;;;;33.00;30.00;;;;;5.00;68.50;101191.50;4998947;28;45252;-68
2022/12/03 07:11:51;;;;;;;;;34.00;33.00;;;;;5.12;68.34;101223.19;4998961;28;45175;-68
2022/12/03 07:14:17;;;;;;;;;29.67;25.67;;;;;4.96;69.36;101209.28;4981393;28;45260;-69
2022/12/03 07:16:42;;;;;;;;;38.67;34.00;;;;;5.15;68.55;101228.28;5000259;28;46905;-71
2022/12/03 07:19:08;;;;;;;;;34.33;32.00;;;;;4.25;69.01;101061.94;5000614;28;45300;-68
2022/12/03 07:21:34;;;;;;;;;39.33;26.67;;;;;5.37;69.24;101221.63;5019908;28;45309;-70
2022/12/03 07:23:59;;;;;;;;;38.00;35.00;;;;;5.23;67.36;101229.59;5019675;28;45251;-67
2022/12/03 07:26:25;;;;;;;;;34.33;28.67;;;;;5.14;68.18;101226.56;5010584;28;45577;-71
2022/12/03 07:28:50;;;;;;;;;41.00;34.33;;;;;4.41;69.09;101089.00;4998916;28;45593;-68
2022/12/03 07:31:16;;;;;;;;;28.33;25.67;;;;;4.81;68.84;101144.41;4999389;28;45287;-69
2022/12/03 07:33:41;;;;;;;;;38.00;29.67;;;;;5.32;67.82;101219.28;4999565;28;45511;-69
2022/12/03 07:36:07;;;;;;;;;30.33;28.00;;;;;4.73;67.89;101136.13;4981574;28;46474;-70
2022/12/03 07:38:32;;;;;;;;;38.67;31.00;;;;;5.08;68.04;101218.22;4998503;28;45313;-67
2022/12/03 07:40:58;;;;;;;;;47.33;35.00;;;;;5.00;67.95;101228.38;4998743;28;45684;-68
2022/12/03 07:43:23;;;;;;;;;30.00;21.67;;;;;4.91;68.67;101240.34;4997573;28;45530;-70
2022/12/03 07:45:49;;;;;;;;;36.33;33.67;;;;;5.01;68.50;101238.84;4998231;28;46687;-70
2022/12/03 07:48:14;;;;;;;;;33.33;28.33;;;;;4.85;68.52;101228.44;4998637;28;45419;-70
2022/12/03 07:50:39;;;;;;;;;22.67;17.67;;;;;5.01;68.73;101251.19;4980820;28;45617;-68
2022/12/03 07:53:05;;;;;;;;;36.33;29.67;;;;;5.10;68.15;101242.69;4998530;28;45410;-68
2022/12/03 07:55:30;;;;;;;;;23.67;20.00;;;;;4.90;68.17;101228.13;4998248;28;46311;-70
2022/12/03 07:57:55;;;;;;;;;30.33;26.67;;;;;4.53;68.75;101161.94;4998126;28;46716;-68
2022/12/03 08:00:21;;;;;;;;;29.33;25.33;;;;;4.54;67.82;101134.66;4980663;28;45206;-71
2022/12/03 08:02:47;;;;;;;;;34.33;30.33;;;;;5.22;67.24;101230.53;4998630;28;45396;-71
2022/12/03 08:05:12;;;;;;;;;30.33;27.67;;;;;4.32;67.89;101089.56;4989792;28;45431;-70
2022/12/03 08:07:37;;;;;;;;;23.00;20.00;;;;;4.89;67.69;101174.59;4998093;28;50629;-68
2022/12/03 08:10:05;;;;;;;;;25.67;23.00;;;;;5.37;66.86;101245.34;5016917;28;47029;-71
2022/12/03 08:12:40;;;;;;;;;36.00;28.00;;;;;4.47;67.21;101085.13;5011279;28;45441;-69
2022/12/03 08:15:14;;;;;;;;;29.00;24.00;;;;;5.32;67.20;101242.16;5007243;28;45700;-69
2022/12/03 08:17:41;;;;;;;;;17.67;16.67;;;;;5.27;67.02;101234.56;5017946;28;45257;-68
2022/12/03 08:20:16;;;;;;;;;33.00;25.67;;;;;5.16;67.17;101224.69;5003771;28;45395;-68
2022/12/03 08:22:43;;;;;;;;;34.33;30.00;;;;;5.23;67.20;101246.25;4998019;28;45321;-69
2022/12/03 08:25:30;;;;;;;;;25.33;22.00;;;;;5.21;67.11;101231.47;5014407;28;45902;-69
2022/12/03 08:28:01;;;;;;;;;37.67;32.67;;;;;4.30;67.29;101083.53;5017277;28;45491;-69
2022/12/03 08:30:26;;;;;;;;;33.33;28.33;;;;;5.34;66.53;101227.94;5017667;28;45490;-72
2022/12/03 08:32:52;;;;;;;;;31.67;27.67;;;;;4.54;66.91;101087.25;5013520;28;45502;-67
2022/12/03 08:35:26;;;;;;;;;55.25;41.25;;;;;5.52;66.39;101228.53;5014823;28;45509;-69
2022/12/03 08:38:04;;;;;;;;;32.33;30.00;;;;;5.45;66.78;101224.63;5014809;28;45531;-69
2022/12/03 08:40:40;;;;;;;;;31.33;28.33;;;;;4.86;67.06;101142.34;4993060;28;45341;-70
2022/12/03 08:43:26;;;;;;;;;33.33;26.67;;;;;5.08;67.32;101211.16;5014870;28;45503;-69
2022/12/03 08:45:56;;;;;;;;;29.67;28.00;;;;;5.27;67.89;101239.00;4983080;28;47839;-69
2022/12/03 08:48:24;;;;;;;;;30.67;28.67;;;;;4.85;67.32;101202.06;4979510;28;45882;-68
2022/12/03 08:50:55;;;;;;;;;32.33;28.33;;;;;5.17;68.36;101234.28;5008034;28;45519;-70
2022/12/03 08:53:30;;;;;;;;;35.00;29.00;;;;;5.08;68.32;101219.06;5015698;28;45412;-69
2022/12/03 08:56:01;;;;;;;;;37.67;34.00;;;;;5.12;67.24;101212.66;4984827;28;47159;-69
2022/12/03 08:58:31;;;;;;;;;35.00;30.33;;;;;5.22;67.79;101233.16;5016766;28;45493;-71
2022/12/03 09:01:07;;;;;;;;;31.33;23.00;;;;;4.39;68.16;101098.75;5015446;28;45678;-73
2022/12/03 09:03:36;;;;;;;;;28.67;27.00;;;;;5.29;68.04;101226.56;5015348;28;45443;-70
2022/12/03 09:06:01;;;;;;;;;35.67;30.00;;;;;5.35;67.32;101234.06;5014595;28;45564;-68
2022/12/03 09:08:27;;;;;;;;;26.33;23.33;;;;;5.42;68.04;101245.94;5014381;28;45333;-69
2022/12/03 09:10:52;;;;;;;;;28.00;25.33;;;;;5.54;67.21;101241.63;5007202;28;45369;-68
2022/12/03 09:13:18;;;;;;;;;22.67;17.67;;;;;4.82;66.94;101131.16;4989243;28;45505;-69
2022/12/03 09:15:45;;;;;;;;;29.33;25.67;;;;;4.20;67.15;101021.88;4995848;28;46570;-71
2022/12/03 09:18:13;;;;;;;;;33.00;26.00;;;;;5.49;67.01;101241.94;5017020;28;45381;-70
2022/12/03 09:20:38;;;;;;;;;28.33;26.67;;;;;4.74;66.56;101096.53;5016927;28;45370;-69
2022/12/03 09:23:04;;;;;;;;;30.00;28.67;;;;;5.23;66.32;101200.59;5016013;28;45522;-70
2022/12/03 09:25:30;;;;;;;;;31.67;29.00;;;;;4.46;66.51;101109.75;5000133;28;45628;-70
2022/12/03 09:27:55;;;;;;;;;24.33;19.00;;;;;4.81;67.36;101160.22;5009229;28;45519;-69
2022/12/03 09:30:20;;;;;;;;;28.00;26.33;;;;;5.14;67.22;101215.19;4985276;28;45986;-69
2022/12/03 09:32:46;;;;;;;;;30.00;26.33;;;;;5.34;67.09;101227.09;5016867;28;45391;-68
2022/12/03 09:35:11;;;;;;;;;35.00;29.67;;;;;5.35;66.56;101242.81;5015753;28;45236;-68
2022/12/03 09:37:36;;;;;;;;;28.67;25.67;;;;;5.47;66.25;101243.84;5005210;28;45170;-68
2022/12/03 09:40:03;;;;;;;;;27.33;27.00;;;;;5.56;66.09;101227.41;4988070;28;45481;-68
2022/12/03 09:42:28;;;;;;;;;27.00;23.00;;;;;5.04;66.50;101127.97;4979751;28;45515;-69
2022/12/03 09:44:54;;;;;;;;;26.33;23.33;;;;;5.64;66.30;101240.94;5001740;28;45684;-70
2022/12/03 09:47:19;;;;;;;;;26.67;25.67;;;;;5.61;65.78;101241.16;5000664;28;45396;-71
2022/12/03 09:49:45;;;;;;;;;35.00;30.33;;;;;5.09;65.40;101135.59;4998715;28;45198;-76
2022/12/03 09:52:19;;;;;;;;;42.33;34.33;;;;;4.98;65.96;101106.44;5016030;28;45323;-69
2022/12/03 09:54:44;;;;;;;;;33.00;29.00;;;;;5.10;65.37;101156.56;4998524;28;47868;-68
2022/12/03 09:57:13;;;;;;;;;27.67;22.33;;;;;4.62;65.68;101055.19;5007048;28;45282;-73
2022/12/03 09:59:39;;;;;;;;;27.33;24.67;;;;;4.98;66.26;101141.53;5000049;28;45440;-71
2022/12/03 10:02:23;;;;;;;;;26.33;23.00;;;;;5.39;66.25;101203.91;5003546;28;45163;-70
2022/12/03 10:04:48;;;;;;;;;30.00;27.67;;;;;5.04;66.29;101130.63;5002166;28;47505;-72
2022/12/03 10:07:14;;;;;;;;;30.67;26.00;;;;;4.73;66.01;101068.50;5019625;28;45590;-72
2022/12/03 10:09:39;;;;;;;;;38.33;33.33;;;;;5.67;65.98;101222.28;5019789;28;45318;-70
2022/12/03 10:12:05;;;;;;;;;28.67;25.67;;;;;5.37;65.72;101180.28;5018546;28;45333;-73
2022/12/03 10:14:31;;;;;;;;;31.67;27.33;;;;;5.46;65.88;101177.06;5006833;28;46257;-71
2022/12/03 10:16:57;;;;;;;;;24.67;22.33;;;;;5.50;65.94;101219.91;5000054;28;45242;-72
2022/12/03 10:19:26;;;;;;;;;33.00;27.33;;;;;5.38;66.40;101170.56;4999154;28;45371;-70
2022/12/03 10:21:51;;;;;;;;;29.67;28.67;;;;;5.65;66.15;101205.72;5001220;28;45357;-70
2022/12/03 10:24:27;;;;;;;;;25.00;25.00;;;;;5.52;66.62;101194.25;4982803;28;47910;-74
2022/12/03 10:26:55;;;;;;;;;34.67;29.33;;;;;3.80;66.42;100900.75;4999555;28;45365;-72
2022/12/03 10:29:33;;;;;;;;;28.33;25.33;;;;;5.35;66.85;101181.34;4982170;28;45369;-71
2022/12/03 10:32:04;;;;;;;;;30.67;26.67;;;;;5.40;66.75;101185.34;5014926;28;45495;-70
2022/12/03 10:34:35;;;;;;;;;29.00;24.33;;;;;5.10;66.41;101118.81;4998397;28;46917;-70
2022/12/03 10:37:12;;;;;;;;;34.67;23.67;;;;;4.00;65.64;100911.78;5006883;28;45379;-75
2022/12/03 10:39:58;;;;;;;;;33.33;27.33;;;;;5.82;66.48;101195.84;4995528;28;45424;-71
2022/12/03 10:42:29;;;;;;;;;34.67;30.67;;;;;5.39;65.73;101114.25;5018405;28;45606;-71
2022/12/03 10:45:12;;;;;;;;;33.00;27.33;;;;;5.75;66.28;101190.09;5013044;28;45699;-71
2022/12/03 10:47:37;;;;;;;;;34.67;28.67;;;;;5.49;66.17;101157.56;4998374;28;45310;-70
2022/12/03 10:50:13;;;;;;;;;32.67;28.67;;;;;4.56;66.58;100998.47;4998647;28;45484;-71
2022/12/03 10:52:38;;;;;;;;;30.00;27.33;;;;;5.56;65.62;101131.59;4982701;28;45548;-72
2022/12/03 10:55:04;;;;;;;;;18.00;16.00;;;;;5.34;65.54;101111.09;4997995;28;45769;-75
2022/12/03 10:57:29;;;;;;;;;31.00;27.00;;;;;5.89;65.49;101192.66;4997396;28;45333;-72
2022/12/03 10:59:55;;;;;;;;;26.67;25.00;;;;;5.70;65.63;101171.94;4999229;28;45449;-73
2022/12/03 11:02:23;;;;;;;;;30.33;28.67;;;;;5.76;65.37;101175.97;4981921;28;45263;-71
2022/12/03 11:04:49;;;;;;;;;32.67;29.00;;;;;5.03;65.22;101059.56;4980761;28;46129;-70
2022/12/03 11:07:18;;;;;;;;;31.00;30.33;;;;;5.49;66.43;101141.72;4998988;28;45696;-71
2022/12/03 11:09:47;;;;;;;;;32.67;27.00;;;;;5.35;65.99;101139.16;4981300;28;45552;-71
2022/12/03 11:12:21;;;;;;;;;25.67;23.33;;;;;5.55;66.01;101170.31;5000073;28;45506;-71
2022/12/03 11:14:50;;;;;;;;;34.00;28.00;;;;;5.46;66.40;101161.25;4999788;28;45531;-73
2022/12/03 11:17:51;;;;;;;;;31.67;26.33;;;;;5.47;66.46;101164.72;5001010;28;45492;-71
2022/12/03 11:20:19;;;;;;;;;26.00;24.33;;;;;5.65;66.70;101160.88;5000421;28;45411;-71
2022/12/03 11:22:49;;;;;;;;;39.00;31.67;;;;;3.80;65.92;100850.78;4999781;28;45372;-72
2022/12/03 11:25:24;;;;;;;;;29.00;27.00;;;;;5.48;65.97;101130.34;5001930;28;45786;-73
2022/12/03 11:28:14;;;;;;;;;27.00;23.00;;;;;5.60;65.94;101148.91;5020256;28;45447;-74
2022/12/03 11:30:48;;;;;;;;;22.00;15.67;;;;;5.45;66.05;101133.19;5002536;28;45515;-73
2022/12/03 11:33:33;;;;;;;;;27.67;23.33;;;;;5.66;66.27;101152.00;5002413;28;45279;-70
2022/12/03 11:36:02;;;;;;;;;31.00;26.33;;;;;5.80;65.59;101153.69;5020144;28;46485;-72
2022/12/03 11:38:36;;;;;;;;;30.00;28.00;;;;;5.75;65.51;101154.00;5019456;28;45259;-71
2022/12/03 11:41:12;;;;;;;;;35.33;26.33;;;;;5.66;66.06;101149.38;5019383;28;45266;-71